Time;durP1;ratioP1;P1;durP2;ratioP2;P2;SDS_P1;SDS_P2;PMS_P1;PMS_P2;Temp;Humidity;BMP_temperature;BMP_pressure;BME280_temperature;BME280_humidity;BME280_pressure;Samples;Min_cycle;Max_cycle;Signal;HPM_P1;HPM_P2
2021/05/31 00:01:34;;;;;;;24.77;16.55;;;11.10;99.90;;;;;;4153416;28;20034;-73
2021/05/31 00:03:34;;;;;;;32.78;17.67;;;11.00;99.90;;;;;;4157922;28;20096;-74
2021/05/31 00:05:35;;;;;;;23.42;16.65;;;11.00;99.90;;;;;;4161681;28;20033;-74
2021/05/31 00:07:36;;;;;;;23.95;16.73;;;10.90;99.90;;;;;;4163301;28;20033;-74
2021/05/31 00:09:38;;;;;;;20.60;16.48;;;10.80;99.90;;;;;;4163115;28;20040;-74
2021/05/31 00:11:39;;;;;;;21.17;16.03;;;10.70;99.90;;;;;;4163221;28;20030;-74
2021/05/31 00:13:40;;;;;;;25.80;16.98;;;10.60;99.90;;;;;;4163436;28;20029;-74
2021/05/31 00:15:40;;;;;;;25.58;16.60;;;10.50;99.90;;;;;;4162918;28;20113;-73
2021/05/31 00:17:41;;;;;;;25.10;16.75;;;10.40;99.90;;;;;;4163084;28;20024;-73
2021/05/31 00:19:42;;;;;;;25.63;16.98;;;10.40;99.90;;;;;;4163882;28;20044;-73
2021/05/31 00:21:43;;;;;;;24.88;17.67;;;10.30;99.90;;;;;;4164317;28;20037;-73
2021/05/31 00:23:45;;;;;;;26.23;17.27;;;10.30;99.90;;;;;;4164021;28;20091;-73
2021/05/31 00:25:46;;;;;;;30.95;17.15;;;10.20;99.90;;;;;;4164227;28;20049;-74
2021/05/31 00:27:46;;;;;;;23.67;17.05;;;10.10;99.90;;;;;;4164101;28;20144;-73
2021/05/31 00:29:47;;;;;;;28.83;16.60;;;10.10;99.90;;;;;;4163616;28;20118;-74
2021/05/31 00:31:48;;;;;;;30.60;18.50;;;10.00;99.90;;;;;;4162697;28;20116;-73
2021/05/31 00:33:49;;;;;;;27.27;19.67;;;10.00;99.90;;;;;;4162493;28;20038;-73
2021/05/31 00:35:49;;;;;;;25.23;17.15;;;9.90;99.90;;;;;;4162460;28;20091;-73
2021/05/31 00:37:50;;;;;;;25.85;17.15;;;9.90;99.90;;;;;;4164031;28;20038;-73
2021/05/31 00:39:51;;;;;;;25.75;18.27;;;9.90;99.90;;;;;;4164285;28;20345;-73
2021/05/31 00:41:53;;;;;;;29.70;18.55;;;9.90;99.90;;;;;;4163653;28;20040;-73
2021/05/31 00:43:54;;;;;;;25.70;17.80;;;9.90;99.90;;;;;;4162680;28;20099;-73
2021/05/31 00:45:57;;;;;;;28.75;19.48;;;9.90;99.90;;;;;;4163735;28;20034;-74
2021/05/31 00:47:57;;;;;;;29.90;18.95;;;9.80;99.90;;;;;;4163374;28;20046;-72
2021/05/31 00:49:58;;;;;;;29.65;18.27;;;9.80;99.90;;;;;;4163989;28;20402;-73
2021/05/31 00:51:59;;;;;;;28.67;20.17;;;9.80;99.90;;;;;;4163600;28;20034;-73
2021/05/31 00:53:59;;;;;;;34.75;20.25;;;9.80;99.90;;;;;;4163679;28;20349;-73
2021/05/31 00:56:00;;;;;;;27.98;19.25;;;9.80;99.90;;;;;;4163592;28;20083;-73
2021/05/31 00:58:02;;;;;;;28.15;19.02;;;9.80;99.90;;;;;;4163306;28;20178;-74
2021/05/31 01:00:06;;;;;;;30.60;19.98;;;9.70;99.90;;;;;;4163674;28;20464;-73
2021/05/31 01:02:07;;;;;;;28.60;20.10;;;9.70;99.90;;;;;;4162007;28;20038;-73
2021/05/31 01:04:08;;;;;;;29.92;20.73;;;9.60;99.90;;;;;;4163404;28;20037;-73
2021/05/31 01:06:12;;;;;;;30.65;19.00;;;9.60;99.90;;;;;;4163296;28;20120;-73
2021/05/31 01:08:19;;;;;;;36.20;21.05;;;9.60;99.90;;;;;;4162335;28;20052;-72
2021/05/31 01:10:31;;;;;;;32.17;20.70;;;9.50;99.90;;;;;;4153555;28;20030;-73
2021/05/31 01:12:38;;;;;;;35.53;22.23;;;9.50;99.90;;;;;;4160780;28;20456;-73
2021/05/31 01:14:49;;;;;;;34.80;21.58;;;9.50;99.90;;;;;;4161310;28;20465;-73
2021/05/31 01:16:58;;;;;;;42.83;23.95;;;9.50;99.90;;;;;;4163198;28;20029;-74
2021/05/31 01:19:03;;;;;;;31.98;20.38;;;9.40;99.90;;;;;;4163127;28;20116;-73
2021/05/31 01:21:16;;;;;;;34.92;20.45;;;9.40;99.90;;;;;;4161159;28;20021;-73
2021/05/31 01:23:18;;;;;;;36.42;22.58;;;9.40;99.90;;;;;;4151516;28;20029;-73
2021/05/31 01:25:29;;;;;;;38.28;24.13;;;9.40;99.90;;;;;;4161235;28;20107;-73
2021/05/31 01:27:43;;;;;;;34.38;22.20;;;9.40;99.90;;;;;;4161282;28;20034;-73
2021/05/31 01:29:48;;;;;;;40.22;22.55;;;9.30;99.90;;;;;;4161393;28;20487;-73
2021/05/31 01:31:54;;;;;;;38.00;22.75;;;9.20;99.90;;;;;;4178182;28;20071;-73
2021/05/31 01:33:57;;;;;;;37.53;23.73;;;9.20;99.90;;;;;;4161803;28;20440;-73
2021/05/31 01:36:00;;;;;;;33.10;21.75;;;9.20;99.90;;;;;;4161851;28;20041;-73
2021/05/31 01:38:03;;;;;;;35.88;23.58;;;9.20;99.90;;;;;;4161028;28;20038;-73
2021/05/31 01:40:07;;;;;;;39.97;22.40;;;9.20;99.90;;;;;;4162844;28;20053;-73
2021/05/31 01:42:08;;;;;;;;;;;9.10;99.90;;;;;;4161637;28;20396;-73
2021/05/31 01:44:09;;;;;;;32.85;20.08;;;9.10;99.90;;;;;;4163900;28;19982;-73
2021/05/31 01:46:09;;;;;;;36.22;21.95;;;9.10;99.90;;;;;;4168553;28;20045;-72
2021/05/31 01:48:12;;;;;;;37.28;23.73;;;9.10;99.90;;;;;;4161441;28;20540;-72
2021/05/31 01:50:13;;;;;;;31.87;23.20;;;9.10;99.90;;;;;;4157878;28;20034;-72
2021/05/31 01:52:15;;;;;;;32.42;21.40;;;9.10;99.90;;;;;;4159283;28;20048;-73
2021/05/31 01:54:16;;;;;;;37.22;22.83;;;9.10;99.90;;;;;;4160187;28;20024;-73
2021/05/31 01:56:21;;;;;;;36.10;22.45;;;9.00;99.90;;;;;;4160754;28;20029;-73
2021/05/31 01:58:23;;;;;;;35.58;24.25;;;9.00;99.90;;;;;;4160941;28;20076;-73
2021/05/31 02:00:24;;;;;;;34.78;23.10;;;9.00;99.90;;;;;;4160512;28;20113;-73
2021/05/31 02:02:25;;;;;;;43.60;25.27;;;9.00;99.90;;;;;;4162259;28;20029;-73
2021/05/31 02:04:25;;;;;;;44.42;24.65;;;8.90;99.90;;;;;;4162085;28;20057;-74
2021/05/31 02:06:26;;;;;;;38.10;23.88;;;9.00;99.90;;;;;;4161211;28;20173;-73
2021/05/31 02:08:27;;;;;;;46.53;24.58;;;8.90;99.90;;;;;;4162974;28;20411;-73
2021/05/31 02:10:28;;;;;;;46.75;25.23;;;8.90;99.90;;;;;;4162628;28;20029;-73
2021/05/31 02:12:37;;;;;;;45.65;27.52;;;8.90;99.90;;;;;;4161162;28;20522;-73
2021/05/31 02:14:51;;;;;;;40.95;24.38;;;8.80;99.90;;;;;;4162120;28;20500;-73
2021/05/31 02:17:23;;;;;;;43.20;24.95;;;8.80;99.90;;;;;;4162628;28;20037;-73
2021/05/31 02:19:24;;;;;;;43.33;26.55;;;8.80;99.90;;;;;;4147331;28;20476;-73
2021/05/31 02:21:26;;;;;;;40.22;25.75;;;8.80;99.90;;;;;;4162350;28;20025;-72
2021/05/31 02:23:29;;;;;;;49.25;25.98;;;8.80;99.90;;;;;;4160936;28;20041;-73
2021/05/31 02:25:31;;;;;;;46.17;26.85;;;8.80;99.90;;;;;;4162289;28;20026;-72
2021/05/31 02:27:31;;;;;;;49.38;27.60;;;8.70;99.90;;;;;;4162408;28;20044;-73
2021/05/31 02:29:32;;;;;;;41.50;25.52;;;8.70;99.90;;;;;;4161166;28;20392;-74
2021/05/31 02:31:33;;;;;;;49.08;27.55;;;8.70;99.90;;;;;;4162420;28;20529;-73
2021/05/31 02:33:34;;;;;;;41.90;25.63;;;8.80;99.90;;;;;;4162401;28;20088;-73
2021/05/31 02:35:38;;;;;;;55.97;26.63;;;8.80;99.90;;;;;;4161311;28;20044;-72
2021/05/31 02:37:41;;;;;;;;;;;8.80;99.90;;;;;;4161629;28;20041;-73
2021/05/31 02:39:42;;;;;;;45.28;25.73;;;8.80;99.90;;;;;;4164519;28;19915;-73
2021/05/31 02:41:45;;;;;;;48.03;26.10;;;8.70;99.90;;;;;;4163749;28;20046;-73
2021/05/31 02:43:46;;;;;;;;;;;8.80;99.90;;;;;;4165800;28;20116;-73
2021/05/31 02:45:46;;;;;;;48.78;26.23;;;8.70;99.90;;;;;;4165673;28;19913;-72
2021/05/31 02:47:47;;;;;;;50.50;27.55;;;8.70;99.90;;;;;;4165533;28;20553;-73
2021/05/31 02:49:47;;;;;;;54.50;26.15;;;8.80;99.90;;;;;;4163017;28;20042;-73
2021/05/31 02:51:48;;;;;;;54.28;26.13;;;8.70;99.90;;;;;;4165199;28;20065;-73
2021/05/31 02:53:48;;;;;;;52.78;27.42;;;8.70;99.90;;;;;;4163862;28;20036;-73
2021/05/31 02:55:49;;;;;;;48.03;28.48;;;8.70;99.90;;;;;;4165144;28;20550;-72
2021/05/31 02:57:51;;;;;;;49.60;26.95;;;8.70;99.90;;;;;;4165039;28;20095;-73
2021/05/31 02:59:52;;;;;;;54.13;27.08;;;8.70;99.90;;;;;;4163862;28;20121;-73
2021/05/31 03:01:53;;;;;;;46.55;28.35;;;8.60;99.90;;;;;;4164340;28;20029;-73
2021/05/31 03:03:54;;;;;;;51.45;27.30;;;8.60;99.90;;;;;;4164323;28;20385;-74
2021/05/31 03:05:57;;;;;;;57.03;30.48;;;8.50;99.90;;;;;;4164447;28;20033;-73
2021/05/31 03:07:59;;;;;;;51.00;28.00;;;8.50;99.90;;;;;;4164162;28;20033;-73
2021/05/31 03:09:59;;;;;;;48.42;27.15;;;8.40;99.90;;;;;;4163448;28;20128;-73
2021/05/31 03:12:00;;;;;;;57.50;29.10;;;8.40;99.90;;;;;;4163424;28;20524;-73
2021/05/31 03:14:01;;;;;;;62.30;29.80;;;8.40;99.90;;;;;;4163012;28;20419;-73
2021/05/31 03:16:02;;;;;;;53.10;27.02;;;8.30;99.90;;;;;;4161754;28;20045;-74
2021/05/31 03:18:02;;;;;;;52.60;29.30;;;8.40;99.90;;;;;;4162455;28;20030;-73
2021/05/31 03:20:05;;;;;;;59.95;30.77;;;8.40;99.90;;;;;;4163603;28;20571;-73
2021/05/31 03:22:06;;;;;;;56.95;28.20;;;8.40;99.90;;;;;;4162582;28;20515;-73
2021/05/31 03:24:07;;;;;;;55.50;29.25;;;8.40;99.90;;;;;;4163180;28;20042;-72
2021/05/31 03:26:07;;;;;;;54.20;28.85;;;8.40;99.90;;;;;;4164091;28;20432;-72
2021/05/31 03:28:09;;;;;;;62.30;30.23;;;8.30;99.90;;;;;;4162267;28;20065;-73
2021/05/31 03:30:12;;;;;;;65.70;31.00;;;8.40;99.90;;;;;;4163699;28;20477;-73
2021/05/31 03:32:13;;;;;;;62.00;32.28;;;8.30;99.90;;;;;;4162540;28;20080;-73
2021/05/31 03:34:13;;;;;;;66.18;33.05;;;8.30;99.90;;;;;;4163948;28;20120;-72
2021/05/31 03:36:14;;;;;;;70.95;33.50;;;8.40;99.90;;;;;;4163244;28;20052;-73
2021/05/31 03:38:15;;;;;;;73.78;34.20;;;8.40;99.90;;;;;;4164773;28;20044;-73
2021/05/31 03:40:20;;;;;;;69.15;32.90;;;8.40;99.90;;;;;;4163329;28;20416;-73
2021/05/31 03:42:21;;;;;;;78.43;34.78;;;8.40;99.90;;;;;;4164895;28;20037;-73
2021/05/31 03:44:22;;;;;;;67.45;32.08;;;8.50;99.90;;;;;;4164895;28;20087;-72
2021/05/31 03:46:23;;;;;;;58.95;30.88;;;8.50;99.90;;;;;;4164740;28;20071;-73
2021/05/31 03:48:24;;;;;;;65.53;33.30;;;8.50;99.90;;;;;;4164944;28;20431;-72
2021/05/31 03:50:25;;;;;;;75.13;33.33;;;8.50;99.90;;;;;;4162611;28;20029;-72
2021/05/31 03:52:25;;;;;;;66.38;32.00;;;8.60;99.90;;;;;;4162032;28;20094;-72
2021/05/31 03:54:26;;;;;;;69.68;32.03;;;8.60;99.90;;;;;;4163166;28;20471;-73
2021/05/31 03:56:27;;;;;;;72.28;34.50;;;8.60;99.90;;;;;;4163426;28;20053;-73
2021/05/31 03:58:27;;;;;;;67.45;33.28;;;8.60;99.90;;;;;;4163132;28;20488;-73
2021/05/31 04:00:28;;;;;;;62.63;32.08;;;8.60;99.90;;;;;;4163392;28;20124;-73
2021/05/31 04:02:30;;;;;;;70.30;34.58;;;8.60;99.90;;;;;;4163493;28;20117;-73
2021/05/31 04:04:40;;;;;;;82.18;34.45;;;8.60;99.90;;;;;;4163396;28;20484;-73
2021/05/31 04:13:27;;;;;;;68.68;33.17;;;8.60;99.90;;;;;;4163350;28;20080;-73
2021/05/31 04:15:28;;;;;;;65.22;32.10;;;8.60;99.90;;;;;;4163796;28;20029;-73
2021/05/31 04:17:28;;;;;;;66.28;33.28;;;8.60;99.90;;;;;;4164051;28;20021;-73
2021/05/31 04:19:29;;;;;;;74.07;35.05;;;8.60;99.90;;;;;;4164037;28;20457;-73
2021/05/31 04:21:29;;;;;;;83.32;36.28;;;8.70;99.90;;;;;;4162897;28;20075;-72
2021/05/31 04:23:30;;;;;;;73.47;33.55;;;8.70;99.90;;;;;;4163878;28;20029;-72
2021/05/31 04:25:31;;;;;;;59.63;32.92;;;8.80;99.90;;;;;;4163835;28;20025;-73
2021/05/31 04:27:32;;;;;;;69.28;32.75;;;8.70;99.90;;;;;;4163639;28;20030;-73
2021/05/31 04:29:32;;;;;;;76.68;35.17;;;8.80;99.90;;;;;;4164189;28;20049;-73
2021/05/31 04:31:34;;;;;;;67.72;33.40;;;8.90;99.90;;;;;;4164242;28;20061;-73
2021/05/31 04:33:35;;;;;;;69.57;32.83;;;8.90;99.90;;;;;;4162317;28;20041;-73
2021/05/31 04:35:35;;;;;;;70.97;33.08;;;9.00;99.90;;;;;;4163936;28;20136;-73
2021/05/31 04:37:36;;;;;;;70.75;34.80;;;9.10;99.90;;;;;;4164318;28;20033;-72
2021/05/31 04:39:37;;;;;;;73.90;36.17;;;9.20;99.90;;;;;;4163908;28;20033;-73
2021/05/31 04:41:38;;;;;;;75.90;38.65;;;9.30;99.90;;;;;;4163892;28;20137;-73
2021/05/31 04:43:39;;;;;;;72.65;35.65;;;9.40;99.90;;;;;;4163812;28;20116;-73
2021/05/31 04:45:40;;;;;;;78.18;37.60;;;9.50;99.90;;;;;;4163183;28;20036;-72
2021/05/31 04:47:41;;;;;;;77.53;36.92;;;9.50;99.90;;;;;;4163482;28;20040;-72
2021/05/31 04:49:41;;;;;;;77.22;37.38;;;9.50;99.90;;;;;;4164024;28;20481;-73
2021/05/31 04:51:43;;;;;;;74.55;36.38;;;9.60;99.90;;;;;;4163780;28;20034;-73
2021/05/31 04:53:44;;;;;;;71.55;34.95;;;9.70;99.90;;;;;;4163138;28;20084;-73
2021/05/31 04:55:44;;;;;;;78.30;37.55;;;9.70;99.90;;;;;;4163740;28;20034;-73
2021/05/31 04:57:46;;;;;;;71.95;36.53;;;9.70;99.90;;;;;;4163632;28;20049;-72
2021/05/31 04:59:46;;;;;;;73.90;36.80;;;9.80;99.90;;;;;;4163345;28;20064;-73
2021/05/31 05:01:47;;;;;;;71.93;36.22;;;10.00;99.90;;;;;;4162991;28;20049;-73
2021/05/31 05:03:48;;;;;;;71.28;34.67;;;10.00;99.90;;;;;;4159293;28;20104;-73
2021/05/31 05:05:49;;;;;;;73.57;35.83;;;10.10;99.90;;;;;;4162521;28;20396;-73
2021/05/31 05:07:50;;;;;;;74.40;35.58;;;10.10;99.90;;;;;;4163566;28;20040;-73
2021/05/31 05:09:50;;;;;;;74.68;36.13;;;10.10;99.90;;;;;;4159631;28;20088;-72
2021/05/31 05:11:51;;;;;;;70.38;35.88;;;10.20;99.90;;;;;;4163023;28;20492;-73
2021/05/31 05:13:52;;;;;;;72.47;35.47;;;10.20;99.90;;;;;;4157769;28;20032;-73
2021/05/31 05:15:53;;;;;;;67.28;37.55;;;10.30;99.90;;;;;;4162927;28;20045;-73
2021/05/31 05:17:55;;;;;;;63.28;35.47;;;10.30;99.90;;;;;;4160728;28;20488;-73
2021/05/31 05:19:55;;;;;;;65.90;36.45;;;10.40;99.90;;;;;;4163251;28;20039;-73
2021/05/31 05:21:56;;;;;;;71.53;36.97;;;10.40;99.90;;;;;;4159369;28;20058;-73
2021/05/31 05:23:57;;;;;;;66.95;35.47;;;10.50;99.90;;;;;;4162173;28;20519;-73
2021/05/31 05:25:57;;;;;;;64.68;34.60;;;10.60;99.90;;;;;;4177680;28;20037;-73
2021/05/31 05:27:58;;;;;;;57.33;34.35;;;10.60;99.90;;;;;;4162816;28;20473;-73
2021/05/31 05:29:59;;;;;;;61.17;36.75;;;10.70;99.90;;;;;;4163156;28;20632;-72
2021/05/31 05:32:00;;;;;;;58.78;35.03;;;10.80;99.90;;;;;;4162986;28;20037;-73
2021/05/31 05:34:05;;;;;;;63.33;34.88;;;10.90;99.90;;;;;;4159997;28;20396;-73
2021/05/31 05:36:17;;;;;;;59.58;35.15;;;10.90;99.90;;;;;;4159744;28;20380;-74
2021/05/31 05:47:04;;;;;;;61.58;34.75;;;11.30;99.90;;;;;;4159605;28;20034;-73
2021/05/31 05:49:05;;;;;;;49.80;32.17;;;11.40;99.90;;;;;;4161405;28;20026;-73
2021/05/31 05:51:06;;;;;;;52.65;32.50;;;11.40;99.90;;;;;;4159568;28;20064;-72
2021/05/31 05:53:08;;;;;;;48.65;29.80;;;11.50;99.90;;;;;;4162648;28;20412;-73
2021/05/31 05:55:10;;;;;;;51.50;31.45;;;11.60;99.90;;;;;;4162676;28;20353;-72
2021/05/31 05:57:11;;;;;;;47.50;31.30;;;11.60;99.90;;;;;;4160489;28;20079;-73
2021/05/31 05:59:12;;;;;;;48.30;29.73;;;11.70;99.90;;;;;;4176087;28;20033;-73
2021/05/31 06:01:13;;;;;;;49.78;29.92;;;11.80;99.90;;;;;;4163032;28;20026;-73
2021/05/31 06:03:14;;;;;;;45.38;30.70;;;11.90;99.90;;;;;;4161321;28;20041;-73
2021/05/31 06:05:15;;;;;;;52.13;33.20;;;12.00;99.90;;;;;;4162593;28;20385;-73
2021/05/31 06:07:16;;;;;;;53.28;32.58;;;12.10;99.90;;;;;;4162722;28;20034;-72
2021/05/31 06:09:17;;;;;;;45.78;30.35;;;12.20;99.90;;;;;;4162395;28;20561;-72
2021/05/31 06:11:19;;;;;;;43.03;29.20;;;12.30;99.90;;;;;;4162756;28;20053;-72
2021/05/31 06:13:20;;;;;;;50.55;32.55;;;12.40;99.90;;;;;;4161964;28;20504;-71
2021/05/31 06:15:20;;;;;;;38.50;28.27;;;12.50;99.90;;;;;;4162279;28;20087;-72
2021/05/31 06:17:21;;;;;;;42.30;29.02;;;12.60;99.90;;;;;;4162400;28;20038;-73
2021/05/31 06:19:22;;;;;;;44.95;29.88;;;12.70;99.90;;;;;;4155311;28;20116;-72
2021/05/31 06:21:22;;;;;;;38.47;28.33;;;12.80;99.90;;;;;;4161907;28;20028;-72
2021/05/31 06:23:24;;;;;;;41.72;27.95;;;12.90;99.90;;;;;;4159920;28;20030;-72
2021/05/31 06:25:26;;;;;;;37.20;27.92;;;13.00;99.90;;;;;;4161781;28;20030;-72
2021/05/31 06:27:26;;;;;;;36.90;26.27;;;13.10;99.90;;;;;;4161643;28;20048;-73
2021/05/31 06:29:27;;;;;;;38.08;26.92;;;13.20;99.90;;;;;;4159441;28;20029;-72
2021/05/31 06:31:28;;;;;;;40.70;27.00;;;13.30;99.90;;;;;;4171477;28;20353;-72
2021/05/31 06:33:29;;;;;;;32.85;26.10;;;13.40;99.90;;;;;;4157577;28;20120;-72
2021/05/31 06:35:31;;;;;;;39.28;27.42;;;13.50;99.90;;;;;;4161860;28;20033;-72
2021/05/31 06:37:37;;;;;;;43.55;27.33;;;13.60;99.90;;;;;;4161261;28;20038;-72
2021/05/31 06:39:38;;;;;;;38.55;25.75;;;13.70;99.90;;;;;;4160705;28;20466;-72
2021/05/31 06:41:39;;;;;;;37.08;25.38;;;13.80;99.90;;;;;;4157379;28;20025;-72
2021/05/31 06:43:40;;;;;;;41.80;27.13;;;13.90;99.90;;;;;;4158814;28;20030;-72
2021/05/31 06:45:40;;;;;;;34.17;24.65;;;14.00;99.90;;;;;;4156322;28;20028;-72
2021/05/31 06:47:41;;;;;;;36.25;23.95;;;14.10;99.90;;;;;;4158836;28;20041;-72
2021/05/31 06:49:44;;;;;;;31.55;23.15;;;14.20;99.90;;;;;;4160793;28;20033;-72
2021/05/31 06:51:44;;;;;;;34.90;23.70;;;14.20;99.90;;;;;;4158180;28;20522;-72
2021/05/31 06:53:45;;;;;;;31.98;23.35;;;14.40;99.90;;;;;;4161199;28;20033;-72
2021/05/31 06:55:46;;;;;;;31.73;22.98;;;14.50;99.90;;;;;;4160761;28;20029;-73
2021/05/31 06:57:48;;;;;;;29.48;22.73;;;14.70;99.90;;;;;;4161597;28;20389;-72
2021/05/31 06:59:48;;;;;;;32.47;21.88;;;14.80;99.90;;;;;;4160244;28;20147;-72
2021/05/31 07:01:49;;;;;;;29.42;22.27;;;14.80;99.90;;;;;;4158810;28;20037;-72
2021/05/31 07:03:50;;;;;;;28.27;20.38;;;14.90;99.90;;;;;;4158931;28;20095;-73
2021/05/31 07:05:50;;;;;;;39.45;21.75;;;15.10;99.90;;;;;;4157558;28;20038;-72
2021/05/31 07:07:52;;;;;;;29.40;20.42;;;15.20;99.90;;;;;;4157848;28;20045;-72
2021/05/31 07:09:53;;;;;;;29.98;21.17;;;15.30;99.90;;;;;;4161438;28;20052;-72
2021/05/31 07:11:53;;;;;;;28.27;20.70;;;15.50;99.90;;;;;;4159075;28;20037;-72
2021/05/31 07:13:56;;;;;;;29.92;20.77;;;15.70;99.90;;;;;;4156752;28;20037;-72
2021/05/31 07:15:57;;;;;;;32.00;20.17;;;15.70;99.90;;;;;;4158910;28;20037;-72
2021/05/31 07:17:58;;;;;;;25.98;20.50;;;15.80;99.90;;;;;;4161306;28;20503;-72
2021/05/31 07:20:00;;;;;;;25.27;18.65;;;15.90;99.90;;;;;;4161423;28;20042;-73
2021/05/31 07:22:01;;;;;;;30.20;20.60;;;16.10;99.90;;;;;;4161229;28;20441;-74
2021/05/31 07:24:02;;;;;;;30.95;20.50;;;16.20;99.90;;;;;;4161276;28;20064;-73
2021/05/31 07:26:05;;;;;;;27.58;20.77;;;16.40;99.90;;;;;;4161669;28;20376;-72
2021/05/31 07:28:06;;;;;;;30.42;20.45;;;16.40;99.90;;;;;;4163602;28;20032;-73
2021/05/31 07:30:08;;;;;;;23.42;20.63;;;16.50;99.90;;;;;;4164229;28;20052;-73
2021/05/31 07:32:09;;;;;;;32.00;20.70;;;16.80;99.90;;;;;;4164055;28;20030;-72
2021/05/31 07:34:09;;;;;;;31.63;20.60;;;16.90;99.90;;;;;;4176231;28;20626;-73
2021/05/31 07:36:11;;;;;;;26.17;20.73;;;17.10;99.90;;;;;;4164589;28;20729;-73
2021/05/31 07:38:11;;;;;;;26.77;19.98;;;17.30;99.90;;;;;;4162996;28;20805;-72
2021/05/31 07:40:15;;;;;;;24.13;20.30;;;17.40;99.90;;;;;;4161553;28;20079;-73
2021/05/31 07:42:15;;;;;;;28.17;19.52;;;17.50;99.90;;;;;;4163019;28;20048;-73
2021/05/31 07:44:16;;;;;;;25.08;19.88;;;17.60;99.90;;;;;;4164185;28;20033;-73
2021/05/31 07:46:17;;;;;;;30.13;19.30;;;17.80;99.90;;;;;;4162124;28;20429;-72
2021/05/31 07:48:18;;;;;;;27.77;20.13;;;18.10;99.90;;;;;;4163961;28;20036;-73
2021/05/31 07:50:20;;;;;;;22.35;18.30;;;18.10;99.90;;;;;;4159320;28;20073;-73
2021/05/31 07:52:24;;;;;;;20.63;17.70;;;18.30;99.90;;;;;;4161276;28;20110;-73
2021/05/31 07:54:25;;;;;;;21.17;15.50;;;18.50;99.90;;;;;;4163765;28;20379;-73
2021/05/31 07:56:27;;;;;;;25.10;18.58;;;18.80;99.90;;;;;;4164073;28;20129;-74
2021/05/31 07:58:28;;;;;;;24.10;16.63;;;18.90;99.90;;;;;;4161025;28;20103;-73
2021/05/31 08:00:29;;;;;;;20.40;16.02;;;19.00;99.90;;;;;;4159033;28;20025;-72
2021/05/31 08:02:30;;;;;;;21.98;17.67;;;19.10;99.90;;;;;;4163557;28;20026;-73
2021/05/31 08:04:30;;;;;;;20.35;16.33;;;19.20;99.90;;;;;;4163645;28;20180;-73
2021/05/31 08:06:32;;;;;;;19.85;15.70;;;19.40;99.90;;;;;;4163521;28;20021;-73
2021/05/31 08:08:32;;;;;;;18.80;14.32;;;19.50;99.90;;;;;;4162177;28;20034;-72
2021/05/31 08:10:33;;;;;;;22.27;14.93;;;19.60;99.90;;;;;;4162384;28;20086;-72
2021/05/31 08:12:35;;;;;;;19.90;15.00;;;19.70;99.90;;;;;;4161047;28;20034;-73
2021/05/31 08:14:35;;;;;;;18.38;15.10;;;19.90;99.90;;;;;;4156997;28;20121;-73
2021/05/31 08:16:36;;;;;;;17.83;14.52;;;19.90;99.90;;;;;;4163686;28;20030;-73
2021/05/31 08:18:37;;;;;;;19.00;14.93;;;19.90;99.90;;;;;;4162581;28;20033;-73
2021/05/31 08:20:41;;;;;;;19.17;14.75;;;20.00;99.90;;;;;;4159964;28;20037;-73
2021/05/31 08:22:45;;;;;;;20.67;14.48;;;20.10;99.90;;;;;;4160072;28;20022;-73
2021/05/31 08:24:46;;;;;;;28.88;14.85;;;20.10;99.90;;;;;;4162597;28;20091;-73
2021/05/31 08:26:47;;;;;;;19.58;15.07;;;20.20;99.90;;;;;;4159639;28;20037;-73
2021/05/31 08:28:48;;;;;;;22.25;14.93;;;20.50;99.90;;;;;;4160745;28;20061;-73
2021/05/31 08:30:49;;;;;;;23.30;15.20;;;20.70;99.90;;;;;;4163654;28;20025;-73
2021/05/31 08:32:50;;;;;;;20.27;15.02;;;20.80;99.90;;;;;;4163164;28;20057;-73
2021/05/31 08:34:51;;;;;;;16.67;12.77;;;21.00;99.90;;;;;;4162322;28;20037;-73
2021/05/31 08:36:51;;;;;;;17.92;11.95;;;21.10;99.90;;;;;;4161671;28;20489;-73
2021/05/31 08:38:57;;;;;;;17.25;14.20;;;21.10;99.90;;;;;;4163495;28;20052;-73
2021/05/31 08:40:59;;;;;;;13.55;11.38;;;21.50;99.90;;;;;;4163475;28;20044;-73
2021/05/31 08:43:02;;;;;;;13.43;11.80;;;21.40;99.90;;;;;;4163804;28;20041;-73
2021/05/31 08:45:07;;;;;;;20.65;12.95;;;21.40;99.90;;;;;;4162607;28;20048;-73
2021/05/31 08:47:09;;;;;;;16.67;12.90;;;21.30;99.90;;;;;;4161149;28;20053;-74
2021/05/31 08:49:10;;;;;;;12.68;10.48;;;21.40;99.90;;;;;;4163577;28;20029;-73
2021/05/31 08:51:11;;;;;;;13.18;10.95;;;21.60;99.90;;;;;;4163514;28;20018;-73
2021/05/31 08:53:13;;;;;;;16.77;11.15;;;21.80;99.90;;;;;;4157282;28;20025;-72
2021/05/31 08:55:16;;;;;;;14.57;10.57;;;21.90;99.90;;;;;;4174650;28;20358;-73
2021/05/31 08:57:17;;;;;;;13.27;9.98;;;22.00;99.90;;;;;;4158936;28;20048;-72
2021/05/31 08:59:17;;;;;;;12.75;10.40;;;21.90;99.90;;;;;;4159413;28;20057;-72
2021/05/31 09:01:20;;;;;;;18.73;12.27;;;22.10;99.90;;;;;;4161712;28;20088;-73
2021/05/31 09:03:21;;;;;;;18.23;12.57;;;22.20;99.90;;;;;;4163254;28;20485;-73
2021/05/31 09:05:34;;;;;;;14.65;10.77;;;22.20;99.90;;;;;;4158204;28;20037;-72
2021/05/31 09:07:35;;;;;;;9.98;8.52;;;22.50;99.90;;;;;;4161206;28;20033;-72
2021/05/31 09:09:38;;;;;;;11.77;10.32;;;22.50;99.90;;;;;;4160846;28;20037;-73
2021/05/31 09:11:38;;;;;;;9.15;8.00;;;22.50;99.90;;;;;;4159423;28;20330;-73
2021/05/31 09:13:43;;;;;;;11.00;7.70;;;22.60;99.90;;;;;;4173798;28;20025;-73
2021/05/31 09:15:44;;;;;;;8.32;6.88;;;22.70;99.90;;;;;;4177592;28;20044;-73
2021/05/31 09:17:47;;;;;;;10.48;6.68;;;22.60;99.90;;;;;;4163058;28;20065;-72
2021/05/31 09:19:48;;;;;;;11.75;6.72;;;22.50;99.90;;;;;;4159609;28;20045;-73
2021/05/31 09:21:49;;;;;;;15.18;6.70;;;22.70;99.90;;;;;;4162508;28;20026;-73
2021/05/31 09:23:59;;;;;;;8.10;6.70;;;22.80;99.90;;;;;;4159470;28;20356;-73
2021/05/31 09:26:03;;;;;;;8.50;6.47;;;23.00;99.90;;;;;;4161367;28;20029;-73
2021/05/31 09:28:11;;;;;;;9.60;6.40;;;22.90;99.90;;;;;;4160904;28;20508;-73
2021/05/31 09:30:12;;;;;;;11.38;7.45;;;23.10;99.90;;;;;;4162595;28;20029;-72
2021/05/31 09:32:13;;;;;;;8.75;6.00;;;23.30;99.90;;;;;;4159774;28;20109;-72
2021/05/31 09:34:14;;;;;;;7.05;5.80;;;23.60;99.90;;;;;;4162441;28;20491;-73
2021/05/31 09:36:14;;;;;;;7.43;5.78;;;23.80;99.90;;;;;;4162613;28;20026;-72
2021/05/31 09:38:15;;;;;;;9.20;5.00;;;23.80;99.90;;;;;;4161768;28;20049;-72
2021/05/31 09:40:23;;;;;;;6.70;4.82;;;23.80;99.90;;;;;;4161234;28;20029;-72
2021/05/31 09:42:23;;;;;;;6.20;4.57;;;24.00;99.90;;;;;;4156503;28;20033;-73
2021/05/31 09:44:27;;;;;;;7.15;4.78;;;24.10;99.80;;;;;;4162725;28;20428;-72
2021/05/31 09:46:47;;;;;;;7.82;4.70;;;24.20;99.90;;;;;;4161396;28;20103;-72
2021/05/31 09:48:48;;;;;;;7.63;4.55;;;24.00;95.70;;;;;;4161631;28;20041;-72
2021/05/31 09:50:54;;;;;;;6.22;5.60;;;24.00;97.40;;;;;;4154875;28;20029;-72
2021/05/31 09:53:09;;;;;;;11.50;5.60;;;24.30;96.40;;;;;;4160974;28;20149;-72
2021/05/31 09:55:10;;;;;;;10.07;5.68;;;24.50;93.80;;;;;;4153512;28;20109;-73
2021/05/31 09:57:25;;;;;;;9.77;5.78;;;24.70;93.40;;;;;;4169803;28;20025;-73
2021/05/31 09:59:30;;;;;;;8.65;6.20;;;24.90;94.40;;;;;;4160502;28;20049;-73
2021/05/31 10:01:36;;;;;;;6.05;4.57;;;24.80;92.40;;;;;;4160967;28;20478;-72
2021/05/31 10:04:06;;;;;;;8.43;5.22;;;25.00;94.00;;;;;;4161117;28;20172;-73
2021/05/31 10:06:19;;;;;;;6.50;5.90;;;25.30;91.30;;;;;;4160816;28;20038;-73
2021/05/31 10:10:31;;;;;;;8.68;6.07;;;25.30;86.00;;;;;;4160575;28;20000;-73
2021/05/31 10:12:33;;;;;;;9.30;5.53;;;25.70;86.70;;;;;;4158856;28;20461;-73
2021/05/31 10:14:34;;;;;;;7.25;4.95;;;25.90;82.50;;;;;;4161101;28;20109;-72
2021/05/31 10:16:35;;;;;;;7.97;5.32;;;25.90;82.20;;;;;;4159074;28;20053;-72
2021/05/31 10:18:40;;;;;;;5.78;4.97;;;26.00;81.70;;;;;;4161063;28;20383;-72
2021/05/31 10:20:42;;;;;;;12.45;9.10;;;26.20;83.20;;;;;;4162227;28;20025;-73
2021/05/31 10:22:43;;;;;;;7.10;4.95;;;26.60;82.10;;;;;;4158565;28;20029;-72
2021/05/31 10:24:45;;;;;;;8.02;7.22;;;27.00;79.20;;;;;;4161968;28;20118;-73
2021/05/31 10:26:46;;;;;;;7.13;4.90;;;27.20;79.80;;;;;;4157429;28;20113;-73
2021/05/31 10:28:47;;;;;;;5.35;4.78;;;27.00;79.80;;;;;;4148427;28;20034;-73
2021/05/31 10:30:52;;;;;;;6.03;5.03;;;27.30;74.80;;;;;;4155970;28;20108;-73
2021/05/31 10:32:53;;;;;;;7.88;5.63;;;27.60;78.40;;;;;;4162666;28;20037;-73
2021/05/31 10:34:54;;;;;;;5.07;4.55;;;27.70;70.70;;;;;;4162282;28;20018;-73
2021/05/31 10:36:55;;;;;;;6.93;5.57;;;28.10;70.90;;;;;;4162440;28;20638;-73
2021/05/31 10:39:01;;;;;;;7.50;4.47;;;28.30;70.50;;;;;;4151012;28;20022;-73
2021/05/31 10:41:10;;;;;;;6.20;4.75;;;28.00;67.30;;;;;;4159151;28;20022;-73
2021/05/31 10:43:19;;;;;;;6.00;4.78;;;27.20;71.10;;;;;;4155242;28;20017;-73
2021/05/31 10:45:23;;;;;;;5.38;4.88;;;27.70;68.20;;;;;;4160657;28;20100;-73